メインページ
METAR-TAF:

METAR-TAF

空港 :

ラスベガス, ネバダ州, アメリカ合衆国

マッカラン国際空港

緯度: 36-04-44N, 経度: 115-09-19W, 海抜: 663m

現時点の気象観測

当レポートは43分前の21:56(UTC)に作成
東/北東の風 10kt
気温 37°C
湿度 31%
気圧 1015 hPa
視程: 16.1km
高度11000ftの雲はほとんどない
高度20000ftの雲は散在している

METAR: KLAS 262156Z 07010KT 10SM FEW110 SCT200 37/17 A2998 RMK AO2 SLP124 CB DSNT NW-N AND E T03720172

時間: 15:39 (22:39 UTC)

予報

当レポートは2時間0分前の20:39(UTC)に作成
予報は26日の 21時(UTC)から 27日の 24時(UTC)まで有効
南東の風 7kt
視程: 10km
高度10000ftの雲は散在している
高度15000ftの千切れ雲あり
27日の 0100時(UTC)から
南西の風 8kt
視程: 10km
高度10000ftの雲は散在している
高度25000ftの雲は散在している
27日の 1500時(UTC)から
変向風 4kt
視程: 10km
晴天
27日の 1800時(UTC)から
の風 5kt
視程: 10km
高度12000ftの雲はほとんどない

TAF: KLAS 262039Z 2621/2724 14007KT P6SM SCT100 BKN150 FM270100 22008KT P6SM SCT100 SCT250 FM271500 VRB04KT P6SM SKC FM271800 09005KT P6SM FEW120

4,000以上の空港の気象観測と天気予報(METAR報とTAF報)

利用可能な観測所は地図上に黄色い丸と赤い丸で示す。

丸の上にカーソルを重ねると観測所名を参照できる。

次にクリックすると気象観測と天気予報を参照できる。

マップの切り替え:黒色「×」印の緑ボタンをクリックして拡大、「-」印の緑ボタンをクリックして縮小、緑色の三角印をクリックして隣りの地図に切り替え


METAR-TAF: